createdAt,value
2022-11-10T00:00:27.139Z,99885.34
2022-11-10T00:02:18.871Z,99890.66
2022-11-10T00:04:10.952Z,99888.91
2022-11-10T00:06:05.282Z,99885.47
2022-11-10T00:07:56.980Z,99892.53
2022-11-10T00:09:48.874Z,99885.63
2022-11-10T00:11:40.969Z,99894.41
2022-11-10T00:13:35.372Z,99894.44
2022-11-10T00:15:45.387Z,99893.56
2022-11-10T00:17:36.566Z,99892.75
2022-11-10T00:19:29.048Z,99880.53
2022-11-10T00:21:22.693Z,99885.72
2022-11-10T00:23:14.972Z,99898.00
2022-11-10T00:25:07.575Z,99898.81
2022-11-10T00:27:00.178Z,99892.72
2022-11-10T00:28:51.724Z,99892.72
2022-11-10T00:30:46.821Z,99892.66
2022-11-10T00:32:38.994Z,99900.63
2022-11-10T00:34:30.875Z,99891.03
2022-11-10T00:36:23.864Z,99891.94
2022-11-10T00:38:15.761Z,99890.19
2022-11-10T00:40:08.223Z,99882.34
2022-11-10T00:42:00.284Z,99887.69
2022-11-10T00:43:52.614Z,99879.00
2022-11-10T00:45:45.180Z,99884.31
2022-11-10T00:47:36.703Z,99878.22
2022-11-10T00:49:28.951Z,99880.94
2022-11-10T00:51:24.843Z,99881.78
2022-11-10T00:53:16.881Z,99880.00
2022-11-10T00:55:09.605Z,99880.91
2022-11-10T00:57:01.024Z,99871.31
2022-11-10T00:58:53.063Z,99877.44
2022-11-10T01:00:45.637Z,99879.19
2022-11-10T01:02:37.420Z,99853.97
2022-11-10T01:04:29.327Z,99863.50
2022-11-10T01:06:22.943Z,99873.94
2022-11-10T01:08:16.110Z,99873.03
2022-11-10T01:10:08.595Z,99873.94
2022-11-10T01:12:00.838Z,99872.19
2022-11-10T01:13:54.025Z,99873.03
2022-11-10T01:15:46.169Z,99865.19
2022-11-10T01:17:38.146Z,99870.41
2022-11-10T01:19:31.077Z,99873.94
2022-11-10T01:21:24.183Z,99877.44
2022-11-10T01:23:17.889Z,99879.25
2022-11-10T01:25:10.497Z,99882.78
2022-11-10T01:27:03.022Z,99879.28
2022-11-10T01:28:55.959Z,99879.31
2022-11-10T01:30:47.681Z,99889.81
2022-11-10T01:32:39.292Z,99888.09
2022-11-10T01:34:31.076Z,99883.78
2022-11-10T01:36:22.533Z,99879.44
2022-11-10T01:38:14.621Z,99879.50
2022-11-10T01:40:09.537Z,99867.31
2022-11-10T01:42:01.411Z,99887.38
2022-11-10T01:43:53.020Z,99875.09
2022-11-10T01:45:48.267Z,99881.25
2022-11-10T01:47:39.868Z,99882.97
2022-11-10T01:49:33.765Z,99874.28
2022-11-10T01:51:29.035Z,99874.28
2022-11-10T01:53:24.955Z,99876.03
2022-11-10T01:55:19.104Z,99875.19
2022-11-10T01:57:14.063Z,99869.13
2022-11-10T01:59:18.883Z,99874.31
2022-11-10T02:01:11.506Z,99873.50
2022-11-10T02:03:07.011Z,99874.41
2022-11-10T02:05:00.885Z,99885.78
2022-11-10T02:06:53.394Z,99878.84
2022-11-10T02:08:46.224Z,99862.31
2022-11-10T02:10:39.575Z,99878.03
2022-11-10T02:12:38.059Z,99875.44
2022-11-10T02:14:30.825Z,99878.06
2022-11-10T02:16:23.107Z,99885.06
2022-11-10T02:18:14.852Z,99881.53
2022-11-10T02:20:10.717Z,99882.38
2022-11-10T02:22:03.773Z,99881.50
2022-11-10T02:23:55.898Z,99876.28
2022-11-10T02:25:48.009Z,99875.41
2022-11-10T02:27:39.820Z,99888.47
2022-11-10T02:29:31.588Z,99883.22
2022-11-10T02:31:23.934Z,99881.47
2022-11-10T02:33:17.894Z,99883.22
2022-11-10T02:35:10.254Z,99887.59
2022-11-10T02:37:04.067Z,99887.59
2022-11-10T02:38:55.976Z,99890.22
2022-11-10T02:40:47.644Z,99891.13
2022-11-10T02:42:39.815Z,99883.28
2022-11-10T02:44:31.337Z,99888.56
2022-11-10T02:46:23.540Z,99885.06
2022-11-10T02:48:16.488Z,99891.19
2022-11-10T02:50:09.216Z,99895.53
2022-11-10T02:52:01.104Z,99862.44
2022-11-10T02:53:54.433Z,99895.59
2022-11-10T02:55:46.639Z,99898.22
2022-11-10T02:57:39.163Z,99902.63
2022-11-10T02:59:31.644Z,99905.22
2022-11-10T03:01:23.352Z,99907.84
2022-11-10T03:03:15.593Z,99905.22
2022-11-10T03:05:07.600Z,99902.63
2022-11-10T03:06:59.511Z,99902.63
2022-11-10T03:08:53.143Z,99900.88
2022-11-10T03:10:45.674Z,99907.88
2022-11-10T03:12:37.860Z,99900.88
2022-11-10T03:14:29.393Z,99907.00
2022-11-10T03:16:21.431Z,99907.00
2022-11-10T03:18:13.345Z,99896.53
2022-11-10T03:20:06.011Z,99909.63
2022-11-10T03:21:58.673Z,99907.03
2022-11-10T03:23:50.383Z,99908.75
2022-11-10T03:25:43.732Z,99922.72
2022-11-10T03:27:35.850Z,99914.91
2022-11-10T03:29:27.647Z,99913.19
2022-11-10T03:31:19.644Z,99920.19
2022-11-10T03:33:11.334Z,99921.03
2022-11-10T03:35:03.259Z,99927.16
2022-11-10T03:36:55.072Z,99925.41
2022-11-10T03:38:47.478Z,99921.91
2022-11-10T03:41:11.968Z,99920.19
2022-11-10T03:42:52.926Z,99921.06
2022-11-10T03:44:44.503Z,99924.56
2022-11-10T03:46:36.839Z,99920.19
2022-11-10T03:48:28.532Z,99921.06
2022-11-10T03:50:20.841Z,99914.97
2022-11-10T03:52:12.381Z,99914.09
2022-11-10T03:54:04.496Z,99914.97
2022-11-10T03:55:56.438Z,99909.72
2022-11-10T03:57:48.325Z,99935.91
2022-11-10T03:59:41.623Z,99921.94
2022-11-10T04:01:33.626Z,99911.47
2022-11-10T04:03:26.151Z,99921.06
2022-11-10T04:05:35.624Z,99923.69
2022-11-10T04:07:44.906Z,99932.41
2022-11-10T04:09:36.547Z,99928.91
2022-11-10T04:11:46.828Z,99933.25
2022-11-10T04:13:56.420Z,99928.91
2022-11-10T04:15:49.557Z,99933.25
2022-11-10T04:17:41.806Z,99927.16
2022-11-10T04:19:33.675Z,99928.06
2022-11-10T04:21:25.380Z,99928.91
2022-11-10T04:23:31.123Z,99928.94
2022-11-10T04:25:23.512Z,99930.66
2022-11-10T04:27:14.105Z,99930.66
2022-11-10T04:29:08.771Z,99945.50
2022-11-10T04:31:02.327Z,99942.00
2022-11-10T04:32:55.179Z,99944.59
2022-11-10T04:34:47.002Z,99941.97
2022-11-10T04:36:41.615Z,99944.59
2022-11-10T04:38:33.310Z,99942.81
2022-11-10T04:40:25.102Z,99942.81
2022-11-10T04:42:16.744Z,99941.94
2022-11-10T04:44:08.974Z,99948.06
2022-11-10T04:46:02.644Z,99944.56
2022-11-10T04:47:54.667Z,99934.09
2022-11-10T04:49:46.231Z,99943.69
2022-11-10T04:51:40.271Z,99950.69
2022-11-10T04:53:31.932Z,99951.53
2022-11-10T04:55:23.954Z,99948.06
2022-11-10T04:57:15.588Z,99953.28
2022-11-10T04:59:07.570Z,99955.06
2022-11-10T05:00:59.106Z,99946.31
2022-11-10T05:02:52.239Z,99948.09
2022-11-10T05:04:44.525Z,99953.28
2022-11-10T05:06:36.399Z,99954.19
2022-11-10T05:08:28.254Z,99946.34
2022-11-10T05:10:20.719Z,99958.50
2022-11-10T05:12:12.369Z,99961.13
2022-11-10T05:14:04.387Z,99964.63
2022-11-10T05:15:56.269Z,99956.72
2022-11-10T05:17:52.087Z,99956.72
2022-11-10T05:19:43.745Z,99970.66
2022-11-10T05:21:36.027Z,99972.41
2022-11-10T05:23:39.568Z,99967.16
2022-11-10T05:25:32.071Z,99962.81
2022-11-10T05:27:24.042Z,99981.09
2022-11-10T05:29:15.708Z,99987.22
2022-11-10T05:31:07.807Z,99983.72
2022-11-10T05:33:01.504Z,99984.56
2022-11-10T05:34:53.309Z,99985.41
2022-11-10T05:36:45.359Z,99987.16
2022-11-10T05:38:42.143Z,99987.13
2022-11-10T05:40:36.126Z,99986.28
2022-11-10T05:42:27.927Z,99996.72
2022-11-10T05:44:20.431Z,100007.19
2022-11-10T05:46:11.925Z,99993.25
2022-11-10T05:48:05.856Z,100003.72
2022-11-10T05:49:57.527Z,100005.47
2022-11-10T05:51:49.287Z,100008.97
2022-11-10T05:53:41.029Z,100010.72
2022-11-10T05:55:32.844Z,100010.69
2022-11-10T05:57:24.443Z,100015.94
2022-11-10T05:59:16.139Z,100018.56
2022-11-10T06:01:08.050Z,100011.59
2022-11-10T06:03:02.361Z,100021.19
2022-11-10T06:04:55.973Z,100029.00
2022-11-10T06:06:47.889Z,100019.41
2022-11-10T06:08:39.536Z,100022.91
2022-11-10T06:10:31.738Z,100028.16
2022-11-10T06:12:25.105Z,100027.34
2022-11-10T06:14:17.173Z,100029.09
2022-11-10T06:16:09.241Z,100029.97
2022-11-10T06:18:01.453Z,100029.06
2022-11-10T06:19:53.118Z,100035.16
2022-11-10T06:21:46.623Z,100034.25
2022-11-10T06:23:38.247Z,100047.34
2022-11-10T06:25:31.399Z,100052.56
2022-11-10T06:27:23.066Z,100037.69
2022-11-10T06:29:15.279Z,100052.53
2022-11-10T06:31:06.883Z,100057.75
2022-11-10T06:32:59.004Z,100055.97
2022-11-10T06:34:50.742Z,100053.38
2022-11-10T06:36:42.731Z,100048.94
2022-11-10T06:38:36.011Z,100055.91
2022-11-10T06:40:28.856Z,100048.88
2022-11-10T06:42:20.670Z,100050.59
2022-11-10T06:44:13.341Z,100042.78
2022-11-10T06:46:05.115Z,100055.00
2022-11-10T06:48:01.482Z,100051.47
2022-11-10T06:49:54.882Z,100054.00
2022-11-10T06:51:46.751Z,100066.22
2022-11-10T06:53:39.873Z,100058.25
2022-11-10T06:55:31.997Z,100053.88
2022-11-10T06:57:23.742Z,100057.34
2022-11-10T06:59:15.758Z,100052.03
2022-11-10T07:01:07.515Z,100059.84
2022-11-10T07:03:03.930Z,100051.94
2022-11-10T07:04:55.279Z,100055.31
2022-11-10T07:06:48.027Z,100054.41
2022-11-10T07:08:41.408Z,100054.41
2022-11-10T07:10:33.310Z,100051.59
2022-11-10T07:12:25.308Z,100058.44
2022-11-10T07:14:17.403Z,100061.00
2022-11-10T07:16:09.395Z,100052.06
2022-11-10T07:18:02.670Z,100059.00
2022-11-10T07:19:54.696Z,100057.06
2022-11-10T07:21:46.838Z,100051.63
2022-11-10T07:23:38.647Z,100060.25
2022-11-10T07:25:33.794Z,100048.72
2022-11-10T07:27:25.505Z,100052.19
2022-11-10T07:29:17.583Z,100050.41
2022-11-10T07:31:09.515Z,100053.81
2022-11-10T07:33:02.745Z,100051.91
2022-11-10T07:34:54.542Z,100053.41
2022-11-10T07:36:46.479Z,100055.56
2022-11-10T07:38:37.980Z,100060.88
2022-11-10T07:40:32.155Z,100066.13
2022-11-10T07:42:23.904Z,100053.75
2022-11-10T07:44:16.000Z,100050.94
2022-11-10T07:46:07.789Z,100047.81
2022-11-10T07:48:07.131Z,100042.16
2022-11-10T07:50:05.415Z,100040.19
2022-11-10T07:52:04.135Z,100030.34
2022-11-10T07:53:55.960Z,100035.53
2022-11-10T07:55:49.466Z,100028.47
2022-11-10T07:57:41.432Z,100027.88
2022-11-10T07:59:33.200Z,100017.22
2022-11-10T08:01:25.037Z,100023.81
2022-11-10T08:03:19.649Z,100025.50
2022-11-10T08:05:11.912Z,100023.75
2022-11-10T08:07:03.950Z,100033.00
2022-11-10T08:08:55.902Z,100026.75
2022-11-10T08:10:49.346Z,100031.63
2022-11-10T08:12:41.038Z,100029.13
2022-11-10T08:14:33.118Z,100026.88
2022-11-10T08:16:25.211Z,100028.84
2022-11-10T08:18:19.656Z,100023.38
2022-11-10T08:20:12.103Z,100007.00
2022-11-10T08:22:04.055Z,100012.25
2022-11-10T08:23:56.176Z,100007.78
2022-11-10T08:25:53.053Z,100004.97
2022-11-10T08:27:44.616Z,100004.38
2022-11-10T08:29:36.759Z,99997.03
2022-11-10T08:31:28.966Z,100016.06
2022-11-10T08:33:22.951Z,100023.03
2022-11-10T08:35:15.229Z,100011.53
2022-11-10T08:37:10.127Z,100007.66
2022-11-10T08:39:02.092Z,100007.84
2022-11-10T08:40:58.244Z,99995.69
2022-11-10T08:42:49.833Z,100008.06
2022-11-10T08:44:41.948Z,100010.91
2022-11-10T08:46:33.463Z,100003.47
2022-11-10T08:48:25.566Z,99999.06
2022-11-10T08:50:17.671Z,100002.41
2022-11-10T08:52:11.197Z,99991.09
2022-11-10T08:54:02.865Z,99998.81
2022-11-10T08:56:00.360Z,99997.38
2022-11-10T08:57:52.189Z,99991.09
2022-11-10T08:59:44.064Z,99993.94
2022-11-10T09:01:35.836Z,99986.22
2022-11-10T09:03:27.735Z,99986.59
2022-11-10T09:05:19.621Z,99981.41
2022-11-10T09:07:11.575Z,99981.81
2022-11-10T09:09:03.353Z,99984.72
2022-11-10T09:10:57.132Z,99977.34
2022-11-10T09:12:49.164Z,99971.41
2022-11-10T09:14:41.344Z,99969.56
2022-11-10T09:16:33.028Z,99974.13
2022-11-10T09:18:25.326Z,99974.69
2022-11-10T09:20:17.382Z,99980.63
2022-11-10T09:22:09.979Z,99968.00
2022-11-10T09:24:02.195Z,99969.50
2022-11-10T09:25:57.047Z,99973.00
2022-11-10T09:27:49.535Z,99968.44
2022-11-10T09:29:41.799Z,99975.88
2022-11-10T09:31:33.235Z,99970.34
2022-11-10T09:33:25.577Z,99967.59
2022-11-10T09:35:18.044Z,99963.63
2022-11-10T09:37:09.819Z,99967.81
2022-11-10T09:39:01.730Z,99958.22
2022-11-10T09:41:02.940Z,99965.19
2022-11-10T09:42:57.526Z,99955.69
2022-11-10T09:44:54.822Z,99961.25
2022-11-10T09:46:50.636Z,99952.63
2022-11-10T09:48:46.944Z,99956.75
2022-11-10T09:50:43.269Z,99962.38
2022-11-10T09:52:38.259Z,99949.97
2022-11-10T09:54:38.334Z,99943.94
2022-11-10T09:56:34.504Z,99944.66
2022-11-10T09:58:33.185Z,99944.66
2022-11-10T10:00:25.022Z,99944.50
2022-11-10T10:02:29.840Z,99935.28
2022-11-10T10:04:44.676Z,99938.59
2022-11-10T10:07:10.226Z,99934.84
2022-11-10T10:09:12.401Z,99924.78
2022-11-10T10:11:19.953Z,99928.78
2022-11-10T10:13:37.481Z,99922.16
2022-11-10T10:15:38.442Z,99908.47
2022-11-10T10:17:41.327Z,99913.50
2022-11-10T10:19:42.457Z,99914.69
2022-11-10T10:21:46.379Z,99909.78
2022-11-10T10:25:55.572Z,99912.66
2022-11-10T10:27:52.792Z,99920.19
2022-11-10T10:29:49.319Z,99916.13
2022-11-10T10:31:44.445Z,99908.59
2022-11-10T10:33:36.117Z,99911.72
2022-11-10T10:35:29.660Z,99908.25
2022-11-10T10:37:25.641Z,99903.22
2022-11-10T10:39:23.538Z,99903.50
2022-11-10T10:41:23.966Z,99897.22
2022-11-10T10:43:15.877Z,99892.34
2022-11-10T10:45:18.246Z,99893.97
2022-11-10T10:47:10.085Z,99896.25
2022-11-10T10:49:28.157Z,99886.63
2022-11-10T10:51:31.609Z,99884.22
2022-11-10T10:53:24.423Z,99886.50
2022-11-10T10:55:16.262Z,99883.75
2022-11-10T10:57:22.422Z,99884.09
2022-11-10T10:59:22.169Z,99878.03
2022-11-10T11:01:27.188Z,99882.00
2022-11-10T11:03:27.440Z,99882.00
2022-11-10T11:05:20.849Z,99866.63
2022-11-10T11:07:22.918Z,99875.16
2022-11-10T11:09:20.116Z,99868.34
2022-11-10T11:11:12.960Z,99867.59
2022-11-10T11:13:16.021Z,99868.66
2022-11-10T11:15:22.199Z,99862.97
2022-11-10T11:17:20.168Z,99865.16
2022-11-10T11:19:12.458Z,99866.69
2022-11-10T11:21:14.979Z,99871.78
2022-11-10T11:23:18.110Z,99861.66
2022-11-10T11:25:19.933Z,99864.84
2022-11-10T11:27:19.397Z,99861.13
2022-11-10T11:29:26.497Z,99855.19
2022-11-10T11:31:28.382Z,99847.75
2022-11-10T11:33:32.084Z,99860.19
2022-11-10T11:35:33.479Z,99858.00
2022-11-10T11:37:34.086Z,99854.81
2022-11-10T11:39:39.398Z,99843.25
2022-11-10T11:41:40.450Z,99842.38
2022-11-10T11:43:57.642Z,99855.34
2022-11-10T11:45:58.818Z,99848.75
2022-11-10T11:48:15.953Z,99843.84
2022-11-10T11:50:24.237Z,99847.09
2022-11-10T11:52:24.851Z,99844.13
2022-11-10T11:54:29.045Z,99847.75
2022-11-10T11:56:25.453Z,99849.09
2022-11-10T11:58:33.779Z,99846.59
2022-11-10T12:00:25.871Z,99853.06
2022-11-10T12:02:45.565Z,99847.31
2022-11-10T12:04:46.447Z,99840.00
2022-11-10T12:06:56.047Z,99841.75
2022-11-10T12:08:58.351Z,99846.94
2022-11-10T12:11:01.014Z,99844.63
2022-11-10T12:13:25.607Z,99847.13
2022-11-10T12:15:29.983Z,99843.47
2022-11-10T12:17:28.617Z,99843.28
2022-11-10T12:19:30.353Z,99849.63
2022-11-10T12:21:25.980Z,99852.75
2022-11-10T12:23:28.810Z,99849.78
2022-11-10T12:25:27.532Z,99855.59
2022-11-10T12:27:25.276Z,99859.94
2022-11-10T12:29:26.585Z,99847.44
2022-11-10T12:31:22.453Z,99848.78
2022-11-10T12:33:21.839Z,99858.19
2022-11-10T12:35:19.242Z,99846.84
2022-11-10T12:37:17.493Z,99848.78
2022-11-10T12:39:19.892Z,99853.72
2022-11-10T12:41:16.706Z,99857.19
2022-11-10T12:43:19.162Z,99857.50
2022-11-10T12:45:22.474Z,99859.00
2022-11-10T12:47:20.324Z,99856.03
2022-11-10T12:49:18.503Z,99862.13
2022-11-10T12:51:21.775Z,99861.50
2022-11-10T12:53:23.101Z,99863.41
2022-11-10T12:55:16.931Z,99868.13
2022-11-10T12:57:14.506Z,99872.88
2022-11-10T12:59:24.915Z,99864.13
2022-11-10T13:01:19.425Z,99864.81
2022-11-10T13:03:17.077Z,99874.13
2022-11-10T13:05:24.478Z,99867.41
2022-11-10T13:07:25.720Z,99880.25
2022-11-10T13:09:26.405Z,99879.78
2022-11-10T13:11:29.088Z,99885.34
2022-11-10T13:13:21.480Z,99879.25
2022-11-10T13:15:52.381Z,99886.91
2022-11-10T13:18:02.810Z,99881.94
2022-11-10T13:19:58.990Z,99884.63
2022-11-10T13:22:07.672Z,99891.44
2022-11-10T13:24:23.036Z,99895.47
2022-11-10T13:26:56.060Z,99891.75
2022-11-10T13:29:00.446Z,99902.19
2022-11-10T13:30:54.399Z,99897.97
2022-11-10T13:32:46.474Z,99894.53
2022-11-10T13:34:42.495Z,99888.56
2022-11-10T13:36:43.354Z,99908.13
2022-11-10T13:38:38.326Z,99906.75
2022-11-10T13:40:34.177Z,99913.81
2022-11-10T13:42:26.403Z,99909.50
2022-11-10T13:44:28.892Z,99910.75
2022-11-10T13:46:21.571Z,99919.75
2022-11-10T13:48:27.772Z,99913.69
2022-11-10T13:50:31.084Z,99917.25
2022-11-10T13:52:30.728Z,99918.41
2022-11-10T13:54:47.180Z,99901.13
2022-11-10T13:57:00.103Z,99917.06
2022-11-10T13:58:52.484Z,99929.97
2022-11-10T14:00:51.040Z,99932.91
2022-11-10T14:02:49.261Z,99922.59
2022-11-10T14:04:43.981Z,99929.03
2022-11-10T14:06:45.994Z,99933.75
2022-11-10T14:08:47.735Z,99928.66
2022-11-10T14:10:46.161Z,99928.94
2022-11-10T14:12:44.355Z,99928.94
2022-11-10T14:14:47.350Z,99923.94
2022-11-10T14:16:42.874Z,99931.97
2022-11-10T14:18:41.391Z,99935.88
2022-11-10T14:20:41.715Z,99938.06
2022-11-10T14:22:39.244Z,99938.31
2022-11-10T14:24:37.291Z,99938.66
2022-11-10T14:26:36.140Z,99938.97
2022-11-10T14:28:29.035Z,99941.25
2022-11-10T14:30:25.017Z,99948.50
2022-11-10T14:32:21.703Z,99944.50
2022-11-10T14:34:17.305Z,99949.53
2022-11-10T14:36:09.880Z,99947.97
2022-11-10T14:38:02.988Z,99951.59
2022-11-10T14:39:56.842Z,99941.38
2022-11-10T14:41:49.927Z,99939.84
2022-11-10T14:43:41.995Z,99961.75
2022-11-10T14:45:34.092Z,99960.88
2022-11-10T14:47:31.420Z,99953.09
2022-11-10T14:49:25.166Z,99956.28
2022-11-10T14:51:19.351Z,99948.59
2022-11-10T14:53:20.771Z,99962.16
2022-11-10T14:55:18.381Z,99961.34
2022-11-10T14:57:18.423Z,99949.41
2022-11-10T14:59:15.125Z,99954.03
2022-11-10T15:01:08.644Z,99966.97
2022-11-10T15:03:03.312Z,99956.72
2022-11-10T15:04:55.687Z,99962.97
2022-11-10T15:06:50.325Z,99966.09
2022-11-10T15:08:42.961Z,99977.88
2022-11-10T15:10:46.729Z,99966.72
2022-11-10T15:12:42.062Z,99971.31
2022-11-10T15:14:39.613Z,99969.88
2022-11-10T15:16:33.393Z,99969.50
2022-11-10T15:18:29.473Z,99978.34
2022-11-10T15:20:29.681Z,99987.47
2022-11-10T15:22:29.822Z,99981.66
2022-11-10T15:24:23.715Z,99992.81
2022-11-10T15:26:22.195Z,99991.66
2022-11-10T15:28:25.802Z,99993.09
2022-11-10T15:30:24.144Z,100003.06
2022-11-10T15:32:17.933Z,100005.38
2022-11-10T15:34:40.038Z,100007.56
2022-11-10T15:36:34.126Z,100010.44
2022-11-10T15:38:29.952Z,100013.31
2022-11-10T15:40:33.396Z,100008.53
2022-11-10T15:42:26.106Z,100001.25
2022-11-10T15:44:20.726Z,100009.38
2022-11-10T15:46:18.151Z,100018.47
2022-11-10T15:48:13.821Z,100030.22
2022-11-10T15:50:13.443Z,100017.16
2022-11-10T15:52:12.989Z,100013.97
2022-11-10T15:54:04.729Z,100019.28
2022-11-10T15:55:56.605Z,100009.13
2022-11-10T15:57:49.139Z,100027.03
2022-11-10T15:59:41.525Z,100034.59
2022-11-10T16:01:33.930Z,100039.28
2022-11-10T16:03:27.920Z,100026.28
2022-11-10T16:05:21.200Z,100025.72
2022-11-10T16:07:13.330Z,100035.78
2022-11-10T16:09:06.474Z,100038.78
2022-11-10T16:10:58.842Z,100040.03
2022-11-10T16:12:50.533Z,100043.13
2022-11-10T16:14:43.332Z,100031.25
2022-11-10T16:16:34.962Z,100041.41
2022-11-10T16:18:29.398Z,100052.41
2022-11-10T16:20:22.657Z,100054.63
2022-11-10T16:22:15.286Z,100052.91
2022-11-10T16:24:07.633Z,100060.31
2022-11-10T16:25:59.856Z,100069.41
2022-11-10T16:27:51.959Z,100067.19
2022-11-10T16:29:44.312Z,100067.47
2022-11-10T16:31:37.239Z,100059.94
2022-11-10T16:33:29.397Z,100071.84
2022-11-10T16:35:23.533Z,100066.69
2022-11-10T16:37:15.296Z,100075.69
2022-11-10T16:39:13.013Z,100071.59
2022-11-10T16:41:05.878Z,100076.19
2022-11-10T16:42:57.859Z,100074.72
2022-11-10T16:44:49.419Z,100074.97
2022-11-10T16:46:43.699Z,100083.28
2022-11-10T16:48:37.825Z,100091.63
2022-11-10T16:50:34.116Z,100098.34
2022-11-10T16:52:26.482Z,100097.84
2022-11-10T16:54:19.104Z,100095.41
2022-11-10T16:56:15.390Z,100101.78
2022-11-10T16:58:07.207Z,100099.41
2022-11-10T16:59:59.562Z,100096.88
2022-11-10T17:01:51.522Z,100096.34
2022-11-10T17:03:46.660Z,100097.72
2022-11-10T17:05:40.402Z,100105.84
2022-11-10T17:07:34.848Z,100111.31
2022-11-10T17:09:27.246Z,100115.19
2022-11-10T17:11:19.656Z,100115.28
2022-11-10T17:13:12.231Z,100120.66
2022-11-10T17:15:04.059Z,100128.72
2022-11-10T17:16:58.698Z,100122.81
2022-11-10T17:18:51.239Z,100128.41
2022-11-10T17:20:48.325Z,100123.34
2022-11-10T17:22:40.705Z,100130.50
2022-11-10T17:24:32.799Z,100126.25
2022-11-10T17:26:24.670Z,100125.72
2022-11-10T17:28:19.313Z,100139.97
2022-11-10T17:30:13.291Z,100138.47
2022-11-10T17:32:05.451Z,100140.38
2022-11-10T17:33:57.512Z,100138.66
2022-11-10T17:35:53.459Z,100142.19
2022-11-10T17:37:49.447Z,100135.22
2022-11-10T17:39:42.124Z,100140.38
2022-11-10T17:41:35.258Z,100139.56
2022-11-10T17:43:26.967Z,100147.53
2022-11-10T17:45:21.563Z,100145.03
2022-11-10T17:47:13.813Z,100143.41
2022-11-10T17:49:05.707Z,100134.66
2022-11-10T17:50:59.238Z,100142.75
2022-11-10T17:52:51.402Z,100133.25
2022-11-10T17:54:43.390Z,100142.31
2022-11-10T17:56:35.734Z,100147.63
2022-11-10T17:58:27.610Z,100155.66
2022-11-10T18:00:20.374Z,100151.31
2022-11-10T18:02:13.100Z,100153.97
2022-11-10T18:04:05.271Z,100148.84
2022-11-10T18:05:58.763Z,100162.13
2022-11-10T18:07:52.097Z,100163.19
2022-11-10T18:09:44.136Z,100159.69
2022-11-10T18:11:35.615Z,100167.66
2022-11-10T18:13:28.037Z,100162.44
2022-11-10T18:15:20.527Z,100159.03
2022-11-10T18:17:12.503Z,100169.63
2022-11-10T18:19:06.039Z,100177.69
2022-11-10T18:20:59.333Z,100173.31
2022-11-10T18:22:51.308Z,100175.16
2022-11-10T18:24:43.811Z,100176.13
2022-11-10T18:26:36.009Z,100177.97
2022-11-10T18:28:28.095Z,100180.72
2022-11-10T18:30:20.629Z,100177.34
2022-11-10T18:32:12.593Z,100189.03
2022-11-10T18:34:04.525Z,100185.72
2022-11-10T18:36:01.422Z,100183.19
2022-11-10T18:37:53.084Z,100184.13
2022-11-10T18:39:45.304Z,100191.28
2022-11-10T18:41:52.766Z,100188.97
2022-11-10T18:43:44.717Z,100193.75
2022-11-10T18:45:37.313Z,100210.66
2022-11-10T18:47:30.564Z,100197.47
2022-11-10T18:49:22.734Z,100192.22
2022-11-10T18:51:17.017Z,100209.94
2022-11-10T18:53:09.858Z,100209.97
2022-11-10T18:55:01.878Z,100215.34
2022-11-10T18:56:53.770Z,100219.78
2022-11-10T18:58:45.694Z,100216.19
2022-11-10T19:00:37.294Z,100210.06
2022-11-10T19:02:29.160Z,100218.88
2022-11-10T19:04:21.056Z,100220.56
2022-11-10T19:06:14.103Z,100217.00
2022-11-10T19:08:08.173Z,100213.41
2022-11-10T19:10:00.678Z,100215.13
2022-11-10T19:11:52.645Z,100222.09
2022-11-10T19:13:45.925Z,100219.44
2022-11-10T19:15:41.570Z,100230.00
2022-11-10T19:17:33.798Z,100220.38
2022-11-10T19:19:29.702Z,100216.03
2022-11-10T19:21:23.840Z,100226.66
2022-11-10T19:23:17.789Z,100236.50
2022-11-10T19:25:10.075Z,100227.75
2022-11-10T19:27:03.016Z,100228.75
2022-11-10T19:28:55.563Z,100218.38
2022-11-10T19:30:47.571Z,100224.50
2022-11-10T19:32:42.857Z,100230.72
2022-11-10T19:34:34.640Z,100221.22
2022-11-10T19:36:28.241Z,100237.00
2022-11-10T19:38:21.819Z,100231.75
2022-11-10T19:40:23.506Z,100236.09
2022-11-10T19:42:15.670Z,100234.31
2022-11-10T19:44:07.582Z,100242.25
2022-11-10T19:46:03.076Z,100240.53
2022-11-10T19:47:57.247Z,100238.84
2022-11-10T19:49:50.105Z,100233.69
2022-11-10T19:51:42.166Z,100244.38
2022-11-10T19:53:35.629Z,100244.44
2022-11-10T19:55:27.669Z,100246.25
2022-11-10T19:57:19.685Z,100253.25
2022-11-10T19:59:13.035Z,100242.75
2022-11-10T20:01:06.010Z,100251.53
2022-11-10T20:02:57.721Z,100257.63
2022-11-10T20:05:06.534Z,100255.91
2022-11-10T20:07:12.110Z,100254.19
2022-11-10T20:09:05.442Z,100253.34
2022-11-10T20:11:00.269Z,100253.28
2022-11-10T20:12:52.206Z,100254.19
2022-11-10T20:14:43.711Z,100265.69
2022-11-10T20:16:35.798Z,100262.22
2022-11-10T20:18:28.118Z,100271.94
2022-11-10T20:20:20.657Z,100263.22
2022-11-10T20:22:13.184Z,100264.19
2022-11-10T20:24:06.747Z,100268.66
2022-11-10T20:26:09.910Z,100264.31
2022-11-10T20:28:03.663Z,100265.25
2022-11-10T20:29:55.800Z,100276.75
2022-11-10T20:31:47.725Z,100271.50
2022-11-10T20:33:40.291Z,100279.38
2022-11-10T20:35:33.720Z,100279.38
2022-11-10T20:37:25.032Z,100271.44
2022-11-10T20:39:18.888Z,100262.69
2022-11-10T20:41:13.524Z,100269.66
2022-11-10T20:43:05.723Z,100274.91
2022-11-10T20:44:57.308Z,100275.81
2022-11-10T20:46:54.467Z,100275.84
2022-11-10T20:48:47.844Z,100278.47
2022-11-10T20:50:41.438Z,100292.56
2022-11-10T20:52:34.277Z,100290.97
2022-11-10T20:54:27.332Z,100278.78
2022-11-10T20:56:19.108Z,100296.38
2022-11-10T20:58:11.720Z,100297.25
2022-11-10T21:00:03.476Z,100288.53
2022-11-10T21:01:55.435Z,100297.25
2022-11-10T21:03:47.676Z,100287.69
2022-11-10T21:05:39.731Z,100301.66
2022-11-10T21:07:31.874Z,100306.91
2022-11-10T21:09:24.212Z,100299.94
2022-11-10T21:11:37.037Z,100296.44
2022-11-10T21:13:28.687Z,100313.97
2022-11-10T21:15:21.610Z,100312.22
2022-11-10T21:17:13.264Z,100306.97
2022-11-10T21:19:05.020Z,100310.53
2022-11-10T21:20:57.004Z,100308.81
2022-11-10T21:22:48.898Z,100300.13
2022-11-10T21:24:41.000Z,100309.84
2022-11-10T21:26:35.824Z,100316.03
2022-11-10T21:28:28.103Z,100315.19
2022-11-10T21:30:23.989Z,100309.94
2022-11-10T21:32:15.658Z,100311.69
2022-11-10T21:34:07.627Z,100314.31
2022-11-10T21:36:06.553Z,100324.84
2022-11-10T21:37:58.336Z,100314.31
2022-11-10T21:39:50.770Z,100320.44
2022-11-10T21:41:44.348Z,100330.06
2022-11-10T21:43:38.709Z,100331.88
2022-11-10T21:45:30.543Z,100321.41
2022-11-10T21:47:22.218Z,100323.19
2022-11-10T21:49:14.507Z,100331.09
2022-11-10T21:51:08.811Z,100330.19
2022-11-10T21:53:00.861Z,100335.44
2022-11-10T21:54:52.729Z,100338.09
2022-11-10T21:56:45.954Z,100342.50
2022-11-10T21:58:38.633Z,100351.28
2022-11-10T22:00:30.539Z,100347.75
2022-11-10T22:02:22.584Z,100340.78
2022-11-10T22:04:15.544Z,100349.56
2022-11-10T22:06:09.085Z,100357.44
2022-11-10T22:08:00.567Z,100353.03
2022-11-10T22:10:10.617Z,100335.59
2022-11-10T22:12:21.407Z,100362.72
2022-11-10T22:14:31.097Z,100342.66
2022-11-10T22:16:44.620Z,100356.69